Time;durP1;ratioP1;P1;durP2;ratioP2;P2;SDS_P1;SDS_P2;PMS_P1;PMS_P2;Temp;Humidity;BMP_temperature;BMP_pressure;BME280_temperature;BME280_humidity;BME280_pressure;Samples;Min_cycle;Max_cycle;Signal;HPM_P1;HPM_P2
2022/08/24 00:01:12;;;;;;;32.67;29.38;;;;;;;17.53;100.00;101593.41;5116959;28;20099;-43
2022/08/24 00:03:39;;;;;;;29.48;26.65;;;;;;;17.51;100.00;101593.41;5116557;28;20024;-44
2022/08/24 00:06:06;;;;;;;;;;;;;;;17.59;100.00;101593.50;5116359;27;20084;-42
2022/08/24 00:08:31;;;;;;;35.58;31.98;;;;;;;17.53;100.00;101585.59;5116376;28;20433;-47
2022/08/24 00:10:56;;;;;;;37.08;33.28;;;;;;;17.50;100.00;101590.78;5116494;28;20157;-43
2022/08/24 00:13:22;;;;;;;42.35;38.03;;;;;;;17.55;100.00;101586.50;5115624;28;20524;-44
2022/08/24 00:15:47;;;;;;;31.98;27.27;;;;;;;17.52;100.00;101589.03;5116701;28;20475;-44
2022/08/24 00:18:13;;;;;;;31.40;28.20;;;;;;;17.34;100.00;101585.38;5116360;28;20040;-44
2022/08/24 00:20:39;;;;;;;27.15;24.25;;;;;;;17.20;100.00;101600.78;5115428;28;20028;-43
2022/08/24 00:23:04;;;;;;;26.90;24.23;;;;;;;17.07;100.00;101596.28;5116356;28;20030;-46
2022/08/24 00:25:30;;;;;;;31.20;28.15;;;;;;;17.06;100.00;101595.38;5115815;28;20378;-44
2022/08/24 00:27:55;;;;;;;32.97;29.67;;;;;;;17.13;100.00;101605.91;5115636;28;20035;-45
2022/08/24 00:30:22;;;;;;;25.75;23.30;;;;;;;17.04;100.00;101607.53;5116376;28;20027;-42
2022/08/24 00:32:48;;;;;;;32.38;29.10;;;;;;;17.05;100.00;101608.38;5116011;28;20482;-42
2022/08/24 00:35:17;;;;;;;26.88;24.45;;;;;;;16.97;100.00;101605.66;5115585;28;20081;-44
2022/08/24 00:37:44;;;;;;;27.73;24.95;;;;;;;16.86;100.00;101607.19;5115653;28;20054;-43
2022/08/24 00:40:18;;;;;;;31.00;27.95;;;;;;;16.79;100.00;101611.44;5115354;27;20053;-43
2022/08/24 00:42:43;;;;;;;28.73;25.88;;;;;;;16.74;100.00;101603.53;5115946;28;20032;-43
2022/08/24 00:45:12;;;;;;;28.75;25.88;;;;;;;16.73;100.00;101607.00;5116072;28;20080;-44
2022/08/24 00:47:44;;;;;;;30.35;27.38;;;;;;;16.71;100.00;101606.09;5114799;27;20485;-46
2022/08/24 00:50:16;;;;;;;36.58;32.75;;;;;;;16.73;100.00;101607.00;5115762;28;20114;-44
2022/08/24 00:53:05;;;;;;;43.03;38.85;;;;;;;16.81;100.00;101619.25;5115783;28;20743;-42
2022/08/24 00:55:37;;;;;;;38.05;34.15;;;;;;;16.81;100.00;101617.56;5113780;28;20024;-43
2022/08/24 00:58:08;;;;;;;40.00;35.75;;;;;;;16.76;100.00;101614.84;5115604;28;20492;-42
2022/08/24 01:00:42;;;;;;;35.70;31.13;;;;;;;16.77;100.00;101616.63;5115470;28;20027;-43
2022/08/24 01:03:08;;;;;;;31.67;28.48;;;;;;;16.57;100.00;101611.06;5115007;28;20020;-44
2022/08/24 01:05:37;;;;;;;29.10;26.15;;;;;;;16.45;100.00;101619.53;5115414;28;20024;-43
2022/08/24 01:08:05;;;;;;;34.53;31.08;;;;;;;16.51;100.00;101620.50;5114707;28;20471;-42
2022/08/24 01:10:38;;;;;;;29.17;26.27;;;;;;;16.38;100.00;101611.59;5115324;28;20024;-42
2022/08/24 01:13:06;;;;;;;34.17;30.70;;;;;;;16.50;100.00;101603.13;5115458;28;20028;-43
2022/08/24 01:15:36;;;;;;;31.65;28.48;;;;;;;16.39;100.00;101602.94;5114169;27;20450;-42
2022/08/24 01:20:55;;;;;;;32.28;29.20;;;;;;;16.26;100.00;101605.31;5115311;28;20097;-42
2022/08/24 01:23:44;;;;;;;33.50;30.15;;;;;;;16.21;100.00;101601.75;5114391;28;20019;-43
2022/08/24 01:26:13;;;;;;;36.15;32.63;;;;;;;16.23;100.00;101614.78;5115373;28;20024;-42
2022/08/24 01:28:42;;;;;;;35.10;31.45;;;;;;;16.20;100.00;101610.41;5114983;28;20073;-45
2022/08/24 01:31:08;;;;;;;42.95;38.47;;;;;;;16.35;100.00;101612.41;5114220;28;20486;-42
2022/08/24 01:33:33;;;;;;;36.22;32.63;;;;;;;16.30;100.00;101604.53;5114678;28;20016;-46
2022/08/24 01:36:20;;;;;;;40.58;36.35;;;;;;;16.32;100.00;101614.09;5114936;28;20467;-42
2022/08/24 01:38:47;;;;;;;43.55;38.97;;;;;;;16.38;100.00;101604.66;5114496;28;20047;-45
2022/08/24 01:41:13;;;;;;;39.30;35.30;;;;;;;16.33;100.00;101597.63;5114991;28;20027;-44
2022/08/24 01:43:38;;;;;;;41.30;36.90;;;;;;;16.34;100.00;101599.38;5113800;28;20020;-43
2022/08/24 01:46:03;;;;;;;38.35;33.85;;;;;;;16.38;100.00;101594.25;5114736;28;20030;-43
2022/08/24 01:48:30;;;;;;;35.28;31.70;;;;;;;16.29;100.00;101599.28;5114479;28;20032;-43
2022/08/24 01:50:55;;;;;;;43.55;38.80;;;;;;;16.36;100.00;101592.47;5113896;28;20019;-46
2022/08/24 01:53:21;;;;;;;45.28;40.50;;;;;;;16.37;100.00;101597.72;5114735;28;20072;-43
2022/08/24 01:55:46;;;;;;;43.78;38.90;;;;;;;16.35;100.00;101604.63;5114299;28;20102;-42
2022/08/24 01:58:12;;;;;;;39.58;34.90;;;;;;;16.31;100.00;101605.41;5113773;28;20019;-42
2022/08/24 02:00:38;;;;;;;36.55;32.85;;;;;;;16.34;100.00;101591.59;5114184;28;20080;-42
2022/08/24 02:03:04;;;;;;;38.47;34.47;;;;;;;16.16;100.00;101593.00;5114441;28;20420;-45
2022/08/24 02:05:29;;;;;;;39.90;35.83;;;;;;;16.13;100.00;101593.81;5113112;28;20466;-43
2022/08/24 02:07:55;;;;;;;50.47;45.17;;;;;;;16.21;100.00;101593.09;5114553;28;20475;-43
2022/08/24 02:10:20;;;;;;;44.58;39.95;;;;;;;16.22;100.00;101598.31;5114348;28;20036;-43
2022/08/24 02:12:56;;;;;;;42.45;38.25;;;;;;;16.22;100.00;101592.25;5113496;28;20138;-42
2022/08/24 02:15:26;;;;;;;40.08;36.03;;;;;;;16.19;100.00;101597.38;5113979;28;20364;-42
2022/08/24 02:17:51;;;;;;;37.25;33.47;;;;;;;16.13;100.00;101595.56;5114128;28;20406;-43
2022/08/24 02:20:17;;;;;;;49.92;44.60;;;;;;;16.27;100.00;101601.00;5113479;28;20459;-44
2022/08/24 02:22:43;;;;;;;68.28;56.35;;;;;;;16.38;100.00;101602.06;5114148;28;20023;-43
2022/08/24 02:25:08;;;;;;;47.72;42.53;;;;;;;16.36;100.00;101603.78;5114115;27;20027;-42
2022/08/24 02:27:33;;;;;;;41.63;37.17;;;;;;;16.18;100.00;101600.81;5112856;28;20030;-42
2022/08/24 02:29:59;;;;;;;41.80;37.50;;;;;;;16.10;100.00;101611.97;5113960;28;20089;-42
2022/08/24 02:32:24;;;;;;;43.53;39.15;;;;;;;16.07;100.00;101614.50;5113205;28;20020;-45
2022/08/24 02:34:49;;;;;;;43.75;39.17;;;;;;;16.05;100.00;101621.41;5113410;28;20546;-43
2022/08/24 02:37:15;;;;;;;44.35;39.75;;;;;;;16.04;100.00;101619.66;5113774;28;20059;-44
2022/08/24 02:39:40;;;;;;;42.05;37.80;;;;;;;16.02;100.00;101621.34;5112766;28;20463;-46
2022/08/24 02:42:05;;;;;;;40.60;36.50;;;;;;;15.99;100.00;101630.81;5113712;28;20038;-43
2022/08/24 02:44:31;;;;;;;38.25;34.25;;;;;;;15.87;100.00;101626.22;5113450;28;20470;-46
2022/08/24 02:46:56;;;;;;;38.60;34.50;;;;;;;15.74;100.00;101625.97;5112822;28;20027;-45
2022/08/24 02:49:22;;;;;;;37.35;33.65;;;;;;;15.67;100.00;101629.25;5113711;28;20413;-43
2022/08/24 02:51:47;;;;;;;38.63;34.53;;;;;;;15.62;100.00;101623.09;5113707;28;20424;-44
2022/08/24 02:54:16;;;;;;;39.00;35.08;;;;;;;15.66;100.00;101619.75;5113154;28;20063;-44
2022/08/24 02:56:42;;;;;;;42.20;36.20;;;;;;;15.66;100.00;101619.75;5113175;28;20370;-42
2022/08/24 02:59:07;;;;;;;45.17;40.08;;;;;;;15.66;100.00;101617.13;5113428;28;20032;-45
2022/08/24 03:01:33;;;;;;;45.20;40.33;;;;;;;15.69;100.00;101617.19;5112427;28;20015;-43
2022/08/24 03:03:58;;;;;;;48.58;43.28;;;;;;;15.71;100.00;101620.72;5113320;28;20036;-44
2022/08/24 03:06:23;;;;;;;48.05;43.05;;;;;;;15.71;100.00;101612.91;5113375;28;20069;-42
2022/08/24 03:08:49;;;;;;;55.38;48.08;;;;;;;15.82;100.00;101612.28;5112495;28;20024;-43
2022/08/24 03:11:15;;;;;;;55.15;49.13;;;;;;;15.87;100.00;101614.13;5113456;28;20016;-42
2022/08/24 03:13:40;;;;;;;53.95;48.05;;;;;;;15.93;100.00;101613.34;5113068;28;20030;-42
2022/08/24 03:16:06;;;;;;;49.00;43.75;;;;;;;15.81;100.00;101621.78;5112573;28;20028;-44
2022/08/24 03:18:32;;;;;;;47.92;42.78;;;;;;;15.79;100.00;101619.13;5114873;28;20471;-43
2022/08/24 03:21:00;;;;;;;42.17;37.83;;;;;;;15.70;100.00;101607.66;5117559;28;20387;-43
2022/08/24 03:23:26;;;;;;;39.65;35.75;;;;;;;15.71;100.00;101610.31;5116518;28;20024;-46
2022/08/24 03:25:52;;;;;;;38.40;34.67;;;;;;;15.72;100.00;101611.19;5117488;28;20024;-43
2022/08/24 03:28:19;;;;;;;34.60;31.33;;;;;;;15.70;100.00;101603.34;5117430;28;20069;-43
2022/08/24 03:30:45;;;;;;;37.07;33.40;;;;;;;15.69;100.00;101599.00;5116483;28;20095;-43
2022/08/24 03:33:11;;;;;;;40.75;36.38;;;;;;;15.66;100.00;101606.75;5117545;28;20879;-43
2022/08/24 03:35:36;;;;;;;44.47;39.78;;;;;;;15.61;100.00;101605.78;5116995;28;20023;-47
2022/08/24 03:38:03;;;;;;;38.50;34.42;;;;;;;15.57;100.00;101607.41;5116291;28;20044;-42
2022/08/24 03:40:28;;;;;;;37.92;34.25;;;;;;;15.51;100.00;101602.09;5116983;28;20023;-47
2022/08/24 03:42:53;;;;;;;37.10;33.70;;;;;;;15.52;100.00;101602.94;5116424;28;20030;-42
2022/08/24 03:45:20;;;;;;;43.47;38.88;;;;;;;15.54;100.00;101606.47;5116961;28;20016;-42
2022/08/24 03:47:45;;;;;;;55.92;49.97;;;;;;;15.53;100.00;101604.72;5117180;28;20032;-42
2022/08/24 03:50:12;;;;;;;52.17;46.40;;;;;;;15.48;100.00;101602.91;5116354;28;20035;-42
2022/08/24 03:52:37;;;;;;;49.97;44.60;;;;;;;15.44;100.00;101605.38;5116726;28;20026;-47
2022/08/24 03:55:04;;;;;;;45.53;40.72;;;;;;;15.37;100.00;101612.16;5117000;28;20031;-43
2022/08/24 03:57:30;;;;;;;46.30;41.50;;;;;;;15.33;100.00;101617.28;5115871;28;20027;-42
2022/08/24 03:59:55;;;;;;;47.38;42.55;;;;;;;15.31;100.00;101619.81;5116681;28;20031;-45
2022/08/24 04:02:21;;;;;;;47.25;42.25;;;;;;;15.25;100.00;101617.97;5116883;28;20028;-42
2022/08/24 04:04:46;;;;;;;46.08;41.33;;;;;;;15.31;100.00;101619.81;5116019;28;20026;-46
2022/08/24 04:07:11;;;;;;;45.97;41.15;;;;;;;15.19;100.00;101614.38;5116815;28;20065;-42
2022/08/24 04:09:37;;;;;;;47.20;42.22;;;;;;;15.13;100.00;101617.69;5116457;28;20500;-42
2022/08/24 04:12:02;;;;;;;46.05;41.15;;;;;;;15.17;100.00;101621.22;5115837;28;20411;-42
2022/08/24 04:14:28;;;;;;;46.40;40.72;;;;;;;15.14;100.00;101622.94;5116778;28;20035;-42
2022/08/24 04:16:54;;;;;;;49.53;44.10;;;;;;;15.17;100.00;101621.22;5116448;28;20451;-44
2022/08/24 04:19:19;;;;;;;50.35;44.95;;;;;;;15.09;100.00;101619.34;5115697;28;20027;-46
2022/08/24 04:21:45;;;;;;;47.05;42.00;;;;;;;15.07;100.00;101623.63;5116187;28;20379;-42
2022/08/24 04:24:11;;;;;;;42.00;37.63;;;;;;;14.93;100.00;101628.47;5116313;28;20466;-46
2022/08/24 04:26:38;;;;;;;44.53;39.67;;;;;;;14.91;100.00;101630.19;5115136;28;20046;-42
2022/08/24 04:29:08;;;;;;;50.92;42.65;;;;;;;14.93;100.00;101627.63;5115984;28;20379;-43
2022/08/24 04:31:34;;;;;;;50.22;42.90;;;;;;;15.00;100.00;101634.69;5116076;28;20020;-43
2022/08/24 04:33:59;;;;;;;46.92;42.05;;;;;;;14.97;100.00;101629.44;5115502;28;20032;-43
2022/08/24 04:36:25;;;;;;;45.03;40.28;;;;;;;14.92;100.00;101626.72;5115848;28;20020;-44
2022/08/24 04:38:50;;;;;;;48.42;42.15;;;;;;;14.93;100.00;101622.41;5115791;28;20048;-45
2022/08/24 04:41:19;;;;;;;49.17;43.72;;;;;;;14.99;100.00;101638.16;5115345;28;20028;-44
2022/08/24 04:43:45;;;;;;;50.85;42.72;;;;;;;14.98;100.00;101638.97;5115762;28;20045;-46
2022/08/24 04:46:15;;;;;;;46.53;41.53;;;;;;;14.92;100.00;101631.03;5115295;28;20028;-44
2022/08/24 04:48:45;;;;;;;42.97;38.28;;;;;;;14.79;100.00;101633.31;5115612;28;20363;-45
2022/08/24 04:51:13;;;;;;;44.67;39.90;;;;;;;14.76;100.00;101632.41;5115822;28;20416;-47
2022/08/24 04:53:39;;;;;;;44.50;38.65;;;;;;;14.73;100.00;101635.78;5114865;28;20038;-47
2022/08/24 04:56:10;;;;;;;47.95;42.72;;;;;;;14.79;100.00;101641.09;5115724;27;20016;-44
2022/08/24 04:58:35;;;;;;;47.80;42.72;;;;;;;14.76;100.00;101635.84;5115492;28;20036;-44
2022/08/24 05:01:06;;;;;;;48.67;43.38;;;;;;;14.85;100.00;101639.50;5114983;28;20034;-45
2022/08/24 05:03:31;;;;;;;53.55;44.53;;;;;;;14.86;100.00;101641.25;5115499;28;20027;-42
2022/08/24 05:05:56;;;;;;;56.72;49.28;;;;;;;14.91;100.00;101643.16;5115556;28;20034;-46
2022/08/24 05:08:22;;;;;;;60.22;51.70;;;;;;;14.94;100.00;101644.94;5114606;28;20490;-43
2022/08/24 05:10:47;;;;;;;59.20;48.85;;;;;;;14.96;100.00;101648.44;5115327;28;20026;-42
2022/08/24 05:13:14;;;;;;;54.83;46.85;;;;;;;15.00;100.00;101646.81;5115617;28;20024;-42
2022/08/24 05:15:41;;;;;;;56.78;46.78;;;;;;;14.98;100.00;101647.63;5114376;28;20030;-46
2022/08/24 05:18:07;;;;;;;60.85;54.03;;;;;;;15.11;100.00;101646.22;5115397;28;20379;-44
2022/08/24 05:20:34;;;;;;;58.90;52.17;;;;;;;15.09;100.00;101645.31;5115041;28;20462;-44
2022/08/24 05:23:00;;;;;;;67.75;55.83;;;;;;;15.20;100.00;101639.50;5114438;28;20049;-43
2022/08/24 05:25:25;;;;;;;57.05;50.65;;;;;;;15.21;100.00;101649.03;5114839;28;20015;-44
2022/08/24 05:27:50;;;;;;;53.65;47.90;;;;;;;15.25;100.00;101649.13;5114997;28;20031;-45
2022/08/24 05:30:16;;;;;;;50.30;44.80;;;;;;;15.31;100.00;101651.88;5114425;28;20099;-44
2022/08/24 05:32:41;;;;;;;59.10;51.88;;;;;;;15.31;100.00;101650.97;5114862;28;20035;-47
2022/08/24 05:35:08;;;;;;;61.92;51.95;;;;;;;15.35;100.00;101650.25;5115063;28;20024;-42
2022/08/24 05:37:35;;;;;;;64.80;53.05;;;;;;;15.41;100.00;101659.88;5113833;28;20535;-48
2022/08/24 05:40:06;;;;;;;68.40;56.13;;;;;;;15.52;100.00;101665.31;5114828;28;20031;-43
2022/08/24 05:42:31;;;;;;;65.22;55.72;;;;;;;15.60;100.00;101662.03;5113431;28;20023;-43
2022/08/24 05:44:56;;;;;;;68.38;58.70;;;;;;;15.67;100.00;101657.84;5114932;28;20024;-45
2022/08/24 05:47:22;;;;;;;66.10;56.33;;;;;;;15.79;100.00;101665.91;5114461;28;20398;-42
2022/08/24 05:49:50;;;;;;;64.47;54.30;;;;;;;15.88;100.00;101660.06;5114000;28;20471;-45
2022/08/24 05:52:16;;;;;;;67.75;55.28;;;;;;;15.95;100.00;101655.88;5114612;28;20019;-45
2022/08/24 05:54:41;;;;;;;74.85;60.35;;;;;;;16.04;100.00;101652.59;5114351;28;20031;-45
2022/08/24 05:57:06;;;;;;;76.75;60.42;;;;;;;16.13;100.00;101660.56;5113783;28;20039;-45
2022/08/24 05:59:31;;;;;;;76.22;62.50;;;;;;;16.26;100.00;101661.69;5114056;28;20470;-42
2022/08/24 06:01:57;;;;;;;82.65;69.22;;;;;;;16.38;100.00;101664.50;5114572;28;20034;-43
2022/08/24 06:04:22;;;;;;;85.45;69.80;;;;;;;16.51;100.00;101662.13;5113527;28;20015;-43
2022/08/24 06:06:48;;;;;;;89.07;70.57;;;;;;;16.59;100.00;101663.13;5114355;28;20493;-44
2022/08/24 06:09:14;;;;;;;88.47;71.65;;;;;;;16.70;100.00;101664.22;5114257;28;20065;-42
2022/08/24 06:11:40;;;;;;;89.88;73.50;;;;;;;16.86;100.00;101664.47;5113388;28;20019;-43
2022/08/24 06:14:11;;;;;;;99.28;76.88;;;;;;;16.98;100.00;101667.31;5114315;28;20028;-42
2022/08/24 06:16:40;;;;;;;102.05;78.40;;;;;;;17.10;100.00;101675.31;5113795;28;20382;-45
2022/08/24 06:19:07;;;;;;;103.15;83.35;;;;;;;17.21;100.00;101678.09;5113195;28;20023;-44
2022/08/24 06:21:32;;;;;;;140.15;109.15;;;;;;;17.33;100.00;101680.00;5113652;28;20035;-45
2022/08/24 06:23:59;;;;;;;139.90;110.18;;;;;;;17.44;100.00;101681.06;5114193;28;20066;-48
2022/08/24 06:29:09;;;;;;;135.25;108.75;;;;;;;17.67;100.00;101682.22;5114276;28;20399;-42
2022/08/24 06:31:40;;;;;;;125.63;102.70;;;;;;;17.74;100.00;101684.94;5112921;28;20467;-44
2022/08/24 06:34:07;;;;;;;119.85;98.20;;;;;;;17.85;100.00;101692.03;5113806;28;20137;-44
2022/08/24 06:36:32;;;;;;;102.00;89.75;;;;;;;17.99;100.00;101687.03;5113539;28;20032;-46
2022/08/24 06:38:57;;;;;;;102.65;85.57;;;;;;;18.08;100.00;101684.53;5113062;28;20032;-44
2022/08/24 06:41:24;;;;;;;101.07;85.68;;;;;;;18.24;100.00;101691.66;5113502;28;20029;-45
2022/08/24 06:43:49;;;;;;;103.65;82.07;;;;;;;18.37;100.00;101687.47;5113789;28;20026;-46
2022/08/24 06:46:15;;;;;;;88.05;72.97;;;;;;;18.54;100.00;101694.56;5112660;28;20016;-44
2022/08/24 06:48:40;;;;;;;81.80;71.15;;;;;;;18.70;100.00;101701.69;5113385;28;20024;-44
2022/08/24 06:51:11;;;;;;;71.20;63.40;;;;;;;18.90;100.00;101704.53;5113777;28;20019;-42
2022/08/24 06:53:36;;;;;;;77.75;69.35;;;;;;;18.97;100.00;101697.63;5111620;28;20459;-43
2022/08/24 06:56:03;;;;;;;65.63;58.47;;;;;;;19.08;100.00;101703.81;5113708;28;20026;-45
2022/08/24 06:58:30;;;;;;;64.67;57.57;;;;;;;19.21;100.00;101699.56;5113228;28;20024;-43
2022/08/24 07:00:55;;;;;;;67.00;59.87;;;;;;;19.26;100.00;101707.41;5112617;28;20752;-46
2022/08/24 07:03:22;;;;;;;66.38;58.42;;;;;;;19.36;100.00;101697.91;5113241;28;20080;-42
2022/08/24 07:05:52;;;;;;;67.25;59.92;;;;;;;19.48;100.00;101710.19;5113517;28;20035;-43
2022/08/24 07:08:18;;;;;;;68.68;60.35;;;;;;;19.54;100.00;101707.63;5112465;28;20438;-45
2022/08/24 07:10:44;;;;;;;66.68;59.10;;;;;;;19.58;100.00;101712.00;5113300;28;20027;-44
2022/08/24 07:13:10;;;;;;;60.85;54.45;;;;;;;19.67;100.00;101714.66;5113437;28;20020;-43
2022/08/24 07:15:36;;;;;;;59.33;51.28;;;;;;;19.77;100.00;101719.94;5112229;28;20027;-46
2022/08/24 07:18:02;;;;;;;59.70;53.15;;;;;;;19.85;100.00;101718.28;5113253;28;20039;-43
2022/08/24 07:20:30;;;;;;;58.05;51.17;;;;;;;19.95;100.00;101721.81;5113189;28;20027;-43
2022/08/24 07:22:55;;;;;;;64.13;51.88;;;;;;;20.05;100.00;101720.97;5112539;28;20103;-48
2022/08/24 07:25:21;;;;;;;58.05;51.95;;;;;;;20.14;100.00;101720.16;5113023;28;20062;-44
2022/08/24 07:27:46;;;;;;;50.42;45.13;;;;;;;20.37;100.00;101713.25;5113043;28;20024;-43
2022/08/24 07:30:12;;;;;;;53.05;46.28;;;;;;;20.43;100.00;101722.00;5112388;28;20027;-43
2022/08/24 07:32:37;;;;;;;52.15;46.05;;;;;;;20.58;100.00;101715.91;5112842;28;20065;-45
2022/08/24 07:35:03;;;;;;;52.25;45.42;;;;;;;20.80;99.22;101716.84;5112489;28;20066;-44
2022/08/24 07:37:28;;;;;;;48.03;43.03;;;;;;;20.89;100.00;101720.34;5112574;28;20093;-47
2022/08/24 07:39:54;;;;;;;44.92;40.22;;;;;;;21.00;98.50;101725.59;5113184;28;20470;-42
2022/08/24 07:42:19;;;;;;;46.72;41.83;;;;;;;21.21;96.02;101714.25;5112055;28;20019;-43
2022/08/24 07:44:44;;;;;;;49.90;44.50;;;;;;;21.35;97.11;101710.72;5112876;28;20023;-43
2022/08/24 07:47:09;;;;;;;47.15;41.67;;;;;;;21.51;94.40;101716.78;5113043;28;20023;-46
2022/08/24 07:49:35;;;;;;;45.25;40.58;;;;;;;21.60;94.62;101716.84;5112269;28;20026;-43
2022/08/24 07:52:00;;;;;;;43.22;37.28;;;;;;;21.84;87.58;101709.75;5112884;28;20544;-46
2022/08/24 07:54:27;;;;;;;43.72;39.05;;;;;;;21.96;86.69;101709.72;5112579;28;20035;-44
2022/08/24 07:56:53;;;;;;;42.65;37.38;;;;;;;22.17;86.35;101715.75;5112119;28;20076;-44
2022/08/24 07:59:18;;;;;;;45.45;37.80;;;;;;;22.33;85.11;101712.13;5112827;28;20036;-43
2022/08/24 08:01:43;;;;;;;38.00;33.88;;;;;;;22.46;84.67;101712.13;5112763;28;20417;-45
2022/08/24 08:04:09;;;;;;;35.15;31.38;;;;;;;22.55;84.17;101709.41;5113080;28;20110;-44
2022/08/24 08:06:35;;;;;;;39.38;33.90;;;;;;;22.66;83.68;101712.00;5116639;28;20027;-44
2022/08/24 08:09:01;;;;;;;27.98;22.88;;;;;;;22.71;78.26;101714.56;5116703;28;20042;-44
2022/08/24 08:11:26;;;;;;;26.90;19.97;;;;;;;23.07;75.32;101717.78;5115587;28;20053;-46
2022/08/24 08:13:53;;;;;;;23.38;19.50;;;;;;;23.04;75.82;101723.09;5116499;28;20313;-46
2022/08/24 08:16:20;;;;;;;23.90;19.67;;;;;;;23.30;74.44;101723.75;5116397;28;20030;-44
2022/08/24 08:18:45;;;;;;;22.75;17.83;;;;;;;23.48;72.06;101724.47;5115633;27;20024;-45
2022/08/24 08:24:13;;;;;;;22.75;18.42;;;;;;;23.62;70.73;101727.81;5116560;28;20015;-44
2022/08/24 08:24:15;;;;;;;24.92;15.80;;;;;;;23.77;68.32;101726.78;5116339;28;20394;-44
2022/08/24 08:26:45;;;;;;;23.38;17.10;;;;;;;23.87;70.91;101732.78;5116035;28;20020;-46
2022/08/24 08:29:12;;;;;;;20.92;14.98;;;;;;;24.11;69.26;101729.03;5116286;28;20412;-44
2022/08/24 08:31:38;;;;;;;22.17;15.00;;;;;;;24.11;68.33;101731.66;5115334;28;20023;-43
2022/08/24 08:34:04;;;;;;;22.70;17.60;;;;;;;24.23;69.26;101724.50;5116354;28;20032;-47
2022/08/24 08:36:30;;;;;;;21.58;17.70;;;;;;;24.33;67.45;101732.22;5115780;28;20023;-43
2022/08/24 08:38:56;;;;;;;18.58;16.10;;;;;;;24.65;67.48;101730.94;5115245;28;20513;-45
2022/08/24 08:41:57;;;;;;;24.55;17.35;;;;;;;24.76;68.31;101730.75;5115910;28;20034;-45
2022/08/24 08:44:28;;;;;;;23.08;16.63;;;;;;;24.93;65.77;101725.22;5115801;28;20089;-43
2022/08/24 08:47:18;;;;;;;21.08;13.82;;;;;;;25.11;68.40;101731.97;5115535;28;20030;-45
2022/08/24 08:50:02;;;;;;;19.00;14.00;;;;;;;25.32;67.40;101729.84;5115534;28;20039;-49
2022/08/24 08:53:05;;;;;;;17.55;13.20;;;;;;;25.51;67.08;101740.94;5115014;27;20020;-45
2022/08/24 08:55:41;;;;;;;18.88;12.25;;;;;;;25.72;64.61;101738.78;5115493;28;20568;-46
2022/08/24 08:58:16;;;;;;;14.00;10.80;;;;;;;25.95;64.71;101733.03;5115991;28;20057;-46
2022/08/24 09:01:02;;;;;;;16.30;12.52;;;;;;;26.18;64.55;101732.59;5114734;28;20027;-48
2022/08/24 09:03:38;;;;;;;20.58;14.73;;;;;;;26.42;62.10;101736.47;5115483;27;20025;-47
2022/08/24 09:06:21;;;;;;;13.65;11.38;;;;;;;26.58;58.72;101734.31;5115527;27;20028;-45
2022/08/24 09:09:16;;;;;;;14.73;10.15;;;;;;;26.76;60.68;101734.84;5115343;28;20030;-44
2022/08/24 09:12:10;;;;;;;11.00;8.73;;;;;;;27.09;61.02;101737.56;5115303;28;20051;-44
2022/08/24 09:15:06;;;;;;;14.45;8.30;;;;;;;27.28;60.62;101738.81;5114298;28;20039;-44
2022/08/24 09:17:48;;;;;;;12.05;6.57;;;;;;;27.63;57.67;101737.94;5114762;28;20030;-46
2022/08/24 09:20:48;;;;;;;8.65;5.25;;;;;;;27.75;60.14;101735.81;5115444;28;20077;-46
2022/08/24 09:23:41;;;;;;;8.95;3.75;;;;;;;27.54;56.74;101734.63;5115441;28;20027;-50
2022/08/24 09:26:31;;;;;;;7.68;4.35;;;;;;;27.40;57.66;101742.09;5115400;28;20027;-49
2022/08/24 09:29:15;;;;;;;10.20;4.68;;;;;;;27.16;57.42;101744.41;5114425;28;20412;-47
2022/08/24 09:31:59;;;;;;;7.93;4.25;;;;;;;26.93;56.16;101743.25;5115032;28;20084;-44
2022/08/24 09:34:45;;;;;;;8.32;4.90;;;;;;;26.85;57.19;101737.25;5114450;28;20023;-46
2022/08/24 09:37:30;;;;;;;8.55;4.28;;;;;;;26.73;58.47;101745.50;5114810;28;20053;-46
2022/08/24 09:40:01;;;;;;;6.85;4.60;;;;;;;26.52;56.04;101738.91;5115019;28;20036;-47
2022/08/24 09:42:51;;;;;;;11.85;4.55;;;;;;;26.50;58.77;101743.38;5114123;28;20023;-48
2022/08/24 09:45:37;;;;;;;7.72;4.38;;;;;;;26.61;58.96;101736.91;5114786;28;20386;-45
2022/08/24 09:48:22;;;;;;;7.68;4.35;;;;;;;27.00;58.63;101743.06;5114748;28;20110;-49
2022/08/24 09:51:05;;;;;;;6.70;4.07;;;;;;;27.43;56.51;101739.34;5114082;27;20065;-44
2022/08/24 09:53:49;;;;;;;5.05;2.97;;;;;;;27.81;52.25;101741.84;5114482;28;20023;-45
2022/08/24 09:56:58;;;;;;;5.97;2.40;;;;;;;28.52;52.72;101739.72;5113779;28;20061;-45
2022/08/24 09:59:48;;;;;;;11.50;5.07;;;;;;;28.90;52.91;101740.31;5051257;28;20445;-46
2022/08/24 10:02:32;;;;;;;8.50;4.72;;;;;;;29.26;52.03;101741.75;5111329;28;20126;-45
2022/08/24 10:05:16;;;;;;;7.30;4.60;;;;;;;29.46;47.28;101744.59;5114380;28;20058;-46
2022/08/24 10:08:09;;;;;;;8.65;3.65;;;;;;;29.63;47.66;101740.47;5114074;28;20493;-45
2022/08/24 10:11:10;;;;;;;7.32;3.67;;;;;;;30.18;47.52;101738.41;5113212;28;20055;-45
2022/08/24 10:14:06;;;;;;;11.57;4.75;;;;;;;31.38;45.53;101737.09;5114221;28;20028;-47
2022/08/24 10:16:37;;;;;;;10.75;3.80;;;;;;;32.07;42.03;101740.25;5102891;28;20035;-44
2022/08/24 10:19:24;;;;;;;8.82;3.38;;;;;;;33.04;41.97;101738.22;5113921;28;20032;-45
2022/08/24 10:22:08;;;;;;;6.47;4.25;;;;;;;33.03;37.15;101724.94;5114227;28;20045;-47
2022/08/24 10:24:46;;;;;;;8.52;3.33;;;;;;;34.27;37.16;101724.56;5113077;28;20034;-47
2022/08/24 10:27:32;;;;;;;7.57;3.90;;;;;;;34.35;38.29;101716.13;5113908;28;20023;-50
2022/08/24 10:30:16;;;;;;;;;;;;;;;35.25;39.44;101722.41;5114360;28;20379;-48
2022/08/24 10:33:07;;;;;;;7.63;3.53;;;;;;;35.71;37.84;101724.91;5112980;28;20369;-47
2022/08/24 10:35:42;;;;;;;7.22;3.60;;;;;;;35.82;33.65;101710.84;5113765;28;20042;-47
2022/08/24 10:41:50;;;;;;;7.13;3.10;;;;;;;35.95;35.59;101721.69;5114088;28;20042;-48
2022/08/24 10:44:52;;;;;;;6.47;2.70;;;;;;;34.99;36.31;101715.97;5113566;28;20054;-44
2022/08/24 10:47:33;;;;;;;5.85;2.70;;;;;;;33.80;35.41;101716.44;5113721;28;20036;-44
2022/08/24 10:50:12;;;;;;;6.72;2.58;;;;;;;32.88;36.75;101702.56;5113747;28;20157;-44
2022/08/24 10:52:49;;;;;;;6.47;2.40;;;;;;;32.03;38.83;101707.53;5112584;28;20091;-46
2022/08/24 10:55:18;;;;;;;5.18;2.40;;;;;;;31.37;40.47;101708.72;5113744;28;20024;-47
2022/08/24 10:58:04;;;;;;;6.15;2.20;;;;;;;30.93;42.69;101704.38;5113325;28;20100;-48
2022/08/24 11:00:30;;;;;;;;;;;;;;;31.31;42.91;101714.31;5112848;28;20067;-49
2022/08/24 11:03:14;;;;;;;12.13;3.67;;;;;;;30.88;43.19;101706.38;5113462;28;19947;-45
2022/08/24 11:05:45;;;;;;;7.20;2.80;;;;;;;31.38;42.06;101699.81;5113409;28;20027;-46
2022/08/24 11:08:24;;;;;;;7.70;2.63;;;;;;;32.55;40.34;101703.28;5112847;28;20047;-48
2022/08/24 11:11:27;;;;;;;5.30;2.50;;;;;;;33.89;39.88;101704.34;5113462;28;20097;-47
2022/08/24 11:13:59;;;;;;;6.03;2.70;;;;;;;34.69;34.18;101698.94;5080676;28;20035;-47
2022/08/24 11:16:32;;;;;;;4.80;2.38;;;;;;;35.46;33.70;101697.94;5113224;28;20016;-49
2022/08/24 11:19:01;;;;;;;5.80;2.60;;;;;;;36.09;30.75;101696.66;5113407;28;20024;-46
2022/08/24 11:21:39;;;;;;;5.07;2.35;;;;;;;36.62;31.98;101696.72;5112291;28;20158;-46
2022/08/24 11:24:12;;;;;;;4.10;1.83;;;;;;;36.33;33.12;101696.81;5113436;28;20027;-47
2022/08/24 11:26:52;;;;;;;4.25;1.88;;;;;;;36.50;32.40;101689.50;5113176;28;20031;-47
2022/08/24 11:29:20;;;;;;;6.07;2.20;;;;;;;36.02;30.54;101690.78;5112303;28;20020;-47
2022/08/24 11:31:49;;;;;;;6.65;1.80;;;;;;;36.26;30.59;101692.84;5113068;28;20028;-45